createdAt,value
2019-01-22T00:00:00.258Z,100.00
2019-01-22T00:02:29.111Z,100.00
2019-01-22T00:04:57.908Z,100.00
2019-01-22T00:07:26.996Z,100.00
2019-01-22T00:09:55.935Z,100.00
2019-01-22T00:12:24.739Z,100.00
2019-01-22T00:14:53.547Z,100.00
2019-01-22T00:17:22.338Z,100.00
2019-01-22T00:19:51.134Z,100.00
2019-01-22T00:22:20.002Z,100.00
2019-01-22T00:24:48.797Z,100.00
2019-01-22T00:27:17.651Z,100.00
2019-01-22T00:29:46.460Z,100.00
2019-01-22T00:32:15.407Z,100.00
2019-01-22T00:34:44.491Z,100.00
2019-01-22T00:37:14.412Z,100.00
2019-01-22T00:39:43.204Z,100.00
2019-01-22T00:42:12.149Z,100.00
2019-01-22T00:44:40.943Z,100.00
2019-01-22T00:47:09.891Z,100.00
2019-01-22T00:49:38.679Z,100.00
2019-01-22T00:52:07.496Z,100.00
2019-01-22T00:54:36.290Z,100.00
2019-01-22T00:57:05.343Z,100.00
2019-01-22T00:59:34.134Z,100.00
2019-01-22T01:02:03.383Z,100.00
2019-01-22T01:04:32.176Z,100.00
2019-01-22T01:07:01.010Z,100.00
2019-01-22T01:09:29.803Z,100.00
2019-01-22T01:11:58.759Z,100.00
2019-01-22T01:14:27.548Z,100.00
2019-01-22T01:16:56.625Z,100.00
2019-01-22T01:19:25.537Z,100.00
2019-01-22T01:21:54.393Z,100.00
2019-01-22T01:24:23.266Z,100.00
2019-01-22T01:26:52.248Z,100.00
2019-01-22T01:29:21.045Z,100.00
2019-01-22T01:31:49.925Z,100.00
2019-01-22T01:34:18.846Z,100.00
2019-01-22T01:36:47.669Z,100.00
2019-01-22T01:39:16.458Z,100.00
2019-01-22T01:41:46.322Z,100.00
2019-01-22T01:44:16.372Z,100.00
2019-01-22T01:46:45.249Z,100.00
2019-01-22T01:49:14.122Z,100.00
2019-01-22T01:51:42.927Z,100.00
2019-01-22T01:54:11.793Z,100.00
2019-01-22T01:56:40.683Z,100.00
2019-01-22T01:59:09.754Z,100.00
2019-01-22T02:01:38.644Z,100.00
2019-01-22T02:04:07.446Z,100.00
2019-01-22T02:06:36.301Z,100.00
2019-01-22T02:09:08.382Z,100.00
2019-01-22T02:11:37.841Z,100.00
2019-01-22T02:14:07.858Z,100.00
2019-01-22T02:16:51.625Z,100.00
2019-01-22T02:19:34.455Z,100.00
2019-01-22T02:22:36.279Z,100.00
2019-01-22T02:25:55.773Z,100.00
2019-01-22T02:29:07.856Z,100.00
2019-01-22T02:32:04.173Z,100.00
2019-01-22T02:34:42.298Z,100.00
2019-01-22T02:37:54.438Z,100.00
2019-01-22T02:40:44.742Z,100.00
2019-01-22T02:44:06.923Z,100.00
2019-01-22T02:46:47.455Z,100.00
2019-01-22T02:49:43.415Z,100.00
2019-01-22T02:53:02.350Z,100.00
2019-01-22T02:56:11.227Z,100.00
2019-01-22T02:58:51.511Z,100.00
2019-01-22T03:01:55.533Z,100.00
2019-01-22T03:04:40.193Z,100.00
2019-01-22T03:07:43.180Z,100.00
2019-01-22T03:11:05.228Z,100.00
2019-01-22T03:14:12.363Z,100.00
2019-01-22T03:17:16.399Z,100.00
2019-01-22T03:20:27.896Z,100.00
2019-01-22T03:23:22.644Z,100.00
2019-01-22T03:26:22.561Z,100.00
2019-01-22T03:29:47.862Z,100.00
2019-01-22T03:32:50.067Z,100.00
2019-01-22T03:36:13.143Z,100.00
2019-01-22T03:38:49.730Z,100.00
2019-01-22T03:41:53.421Z,100.00
2019-01-22T03:45:01.214Z,100.00
2019-01-22T03:48:20.317Z,100.00
2019-01-22T03:51:10.253Z,100.00
2019-01-22T03:54:11.397Z,100.00
2019-01-22T03:56:59.843Z,100.00
2019-01-22T03:59:29.140Z,100.00
2019-01-22T04:01:57.979Z,100.00
2019-01-22T04:04:26.865Z,100.00
2019-01-22T04:06:58.860Z,100.00
2019-01-22T04:09:44.653Z,100.00
2019-01-22T04:12:13.531Z,100.00
2019-01-22T04:14:42.500Z,100.00
2019-01-22T04:17:11.409Z,100.00
2019-01-22T04:19:40.285Z,100.00
2019-01-22T04:22:13.555Z,100.00
2019-01-22T04:25:10.935Z,100.00
2019-01-22T04:28:01.850Z,100.00
2019-01-22T04:31:01.431Z,100.00
2019-01-22T04:34:20.917Z,100.00
2019-01-22T04:37:49.310Z,100.00
2019-01-22T04:40:49.855Z,100.00
2019-01-22T04:43:58.436Z,100.00
2019-01-22T04:46:53.717Z,100.00
2019-01-22T04:50:00.319Z,100.00
2019-01-22T04:52:50.827Z,100.00
2019-01-22T04:55:56.614Z,100.00
2019-01-22T04:58:43.800Z,100.00
2019-01-22T05:01:40.554Z,100.00
2019-01-22T05:04:49.388Z,100.00
2019-01-22T05:08:10.541Z,100.00
2019-01-22T05:10:53.192Z,100.00
2019-01-22T05:13:47.005Z,100.00
2019-01-22T05:16:56.449Z,100.00
2019-01-22T05:19:37.810Z,100.00
2019-01-22T05:22:42.357Z,100.00
2019-01-22T05:25:36.643Z,100.00
2019-01-22T05:28:38.916Z,100.00
2019-01-22T05:31:23.740Z,100.00
2019-01-22T05:34:27.676Z,100.00
2019-01-22T05:37:52.976Z,100.00
2019-01-22T05:40:48.186Z,100.00
2019-01-22T05:43:26.609Z,100.00
2019-01-22T05:46:17.874Z,100.00
2019-01-22T05:49:18.705Z,100.00
2019-01-22T05:51:57.340Z,100.00
2019-01-22T05:54:54.351Z,100.00
2019-01-22T05:57:51.569Z,100.00
2019-01-22T06:00:32.570Z,100.00
2019-01-22T06:03:14.859Z,100.00
2019-01-22T06:05:53.662Z,100.00
2019-01-22T06:09:15.884Z,100.00
2019-01-22T06:12:07.124Z,100.00
2019-01-22T06:15:21.260Z,100.00
2019-01-22T06:18:27.953Z,100.00
2019-01-22T06:21:37.928Z,100.00
2019-01-22T06:24:57.352Z,100.00
2019-01-22T06:27:33.293Z,100.00
2019-01-22T06:30:32.851Z,100.00
2019-01-22T06:33:16.489Z,100.00
2019-01-22T06:36:17.649Z,100.00
2019-01-22T06:39:07.708Z,100.00
2019-01-22T06:42:09.458Z,100.00
2019-01-22T06:45:15.793Z,100.00
2019-01-22T06:47:57.786Z,100.00
2019-01-22T06:50:52.599Z,100.00
2019-01-22T06:53:43.882Z,100.00
2019-01-22T06:56:29.846Z,100.00
2019-01-22T06:59:07.242Z,100.00
2019-01-22T07:01:54.891Z,100.00
2019-01-22T07:04:43.957Z,100.00
2019-01-22T07:07:43.838Z,100.00
2019-01-22T07:10:37.216Z,100.00
2019-01-22T07:13:20.905Z,100.00
2019-01-22T07:16:15.317Z,100.00
2019-01-22T07:19:04.483Z,100.00
2019-01-22T07:22:13.482Z,100.00
2019-01-22T07:25:33.215Z,100.00
2019-01-22T07:28:28.966Z,100.00
2019-01-22T07:31:22.981Z,100.00
2019-01-22T07:34:33.106Z,100.00
2019-01-22T07:37:35.373Z,100.00
2019-01-22T07:40:37.311Z,100.00
2019-01-22T07:43:59.568Z,100.00
2019-01-22T07:47:00.585Z,100.00
2019-01-22T07:50:05.215Z,100.00
2019-01-22T07:53:17.810Z,100.00
2019-01-22T07:56:19.799Z,100.00
2019-01-22T07:59:34.688Z,100.00
2019-01-22T08:02:52.907Z,100.00
2019-01-22T08:05:59.085Z,100.00
2019-01-22T08:08:54.085Z,100.00
2019-01-22T08:12:00.204Z,100.00
2019-01-22T08:14:59.015Z,100.00
2019-01-22T08:17:57.432Z,100.00
2019-01-22T08:20:43.617Z,100.00
2019-01-22T08:23:41.736Z,100.00
2019-01-22T08:26:40.178Z,100.00
2019-01-22T08:30:02.625Z,100.00
2019-01-22T08:33:27.943Z,100.00
2019-01-22T08:36:28.678Z,100.00
2019-01-22T08:39:10.870Z,100.00
2019-01-22T08:42:22.475Z,100.00
2019-01-22T08:45:19.865Z,100.00
2019-01-22T08:48:45.184Z,100.00
2019-01-22T08:52:04.163Z,100.00
2019-01-22T08:55:26.414Z,100.00
2019-01-22T08:58:28.600Z,100.00
2019-01-22T09:01:21.791Z,100.00
2019-01-22T09:04:21.516Z,100.00
2019-01-22T09:07:00.755Z,100.00
2019-01-22T09:10:08.671Z,100.00
2019-01-22T09:13:07.449Z,100.00
2019-01-22T09:16:12.312Z,100.00
2019-01-22T09:19:16.837Z,100.00
2019-01-22T09:22:14.869Z,100.00
2019-01-22T09:24:51.891Z,100.00
2019-01-22T09:27:55.579Z,100.00
2019-01-22T09:30:59.117Z,100.00
2019-01-22T09:33:56.026Z,100.00
2019-01-22T09:37:11.486Z,100.00
2019-01-22T09:39:40.491Z,100.00
2019-01-22T09:42:09.364Z,100.00
2019-01-22T09:44:38.157Z,100.00
2019-01-22T09:47:07.124Z,100.00
2019-01-22T09:49:36.185Z,100.00
2019-01-22T09:52:05.442Z,100.00
2019-01-22T09:54:34.777Z,100.00
2019-01-22T09:57:03.754Z,100.00
2019-01-22T09:59:32.563Z,100.00
2019-01-22T10:02:01.588Z,100.00
2019-01-22T10:04:30.450Z,100.00
2019-01-22T10:06:59.492Z,100.00
2019-01-22T10:09:28.489Z,100.00
2019-01-22T10:11:58.349Z,100.00
2019-01-22T10:14:27.430Z,100.00
2019-01-22T10:16:56.361Z,100.00
2019-01-22T10:19:25.421Z,100.00
2019-01-22T10:21:54.342Z,100.00
2019-01-22T10:24:23.210Z,100.00
2019-01-22T10:26:52.090Z,100.00
2019-01-22T10:29:20.971Z,100.00
2019-01-22T10:31:50.474Z,100.00
2019-01-22T10:34:19.422Z,100.00
2019-01-22T10:36:48.307Z,100.00
2019-01-22T10:39:17.899Z,100.00
2019-01-22T10:41:46.916Z,100.00
2019-01-22T10:44:15.841Z,100.00
2019-01-22T10:46:44.652Z,100.00
2019-01-22T10:49:15.180Z,100.00
2019-01-22T10:51:44.021Z,100.00
2019-01-22T10:54:12.859Z,100.00
2019-01-22T10:56:41.813Z,100.00
2019-01-22T10:59:10.766Z,100.00
2019-01-22T11:01:39.648Z,99.94
2019-01-22T11:04:08.588Z,99.70
2019-01-22T11:06:37.736Z,99.72
2019-01-22T11:09:07.879Z,98.45
2019-01-22T11:11:36.725Z,98.08
2019-01-22T11:14:05.772Z,96.80
2019-01-22T11:16:34.578Z,96.91
2019-01-22T11:19:03.532Z,97.13
2019-01-22T11:21:32.419Z,95.36
2019-01-22T11:24:01.435Z,95.22
2019-01-22T11:26:30.379Z,96.11
2019-01-22T11:28:59.260Z,96.67
2019-01-22T11:31:28.045Z,95.95
2019-01-22T11:33:56.840Z,95.13
2019-01-22T11:36:25.643Z,95.35
2019-01-22T11:38:54.512Z,96.64
2019-01-22T11:41:23.443Z,97.59
2019-01-22T11:43:52.239Z,98.82
2019-01-22T11:46:21.191Z,98.39
2019-01-22T11:48:50.066Z,98.63
2019-01-22T11:51:18.860Z,99.69
2019-01-22T11:53:47.657Z,100.00
2019-01-22T11:56:16.779Z,100.00
2019-01-22T11:58:45.591Z,100.00
2019-01-22T12:01:14.543Z,99.74
2019-01-22T12:03:43.455Z,100.00
2019-01-22T12:06:12.317Z,99.85
2019-01-22T12:08:41.202Z,99.29
2019-01-22T12:11:10.784Z,99.07
2019-01-22T12:13:39.589Z,98.34
2019-01-22T12:16:08.393Z,98.41
2019-01-22T12:18:37.265Z,98.74
2019-01-22T12:21:06.211Z,98.56
2019-01-22T12:23:35.090Z,99.38
2019-01-22T12:26:04.073Z,99.64
2019-01-22T12:28:33.017Z,100.00
2019-01-22T12:31:01.842Z,100.00
2019-01-22T12:33:30.653Z,100.00
2019-01-22T12:35:59.465Z,100.00
2019-01-22T12:38:28.290Z,98.37
2019-01-22T12:40:57.086Z,98.37
2019-01-22T12:43:25.876Z,98.74
2019-01-22T12:45:54.739Z,98.38
2019-01-22T12:48:23.532Z,98.43
2019-01-22T12:50:52.515Z,98.83
2019-01-22T12:53:21.410Z,98.83
2019-01-22T12:55:50.273Z,99.36
2019-01-22T12:58:19.079Z,99.41
2019-01-22T13:00:48.037Z,100.00
2019-01-22T13:03:16.903Z,99.36
2019-01-22T13:05:52.035Z,99.66
2019-01-22T13:08:21.021Z,99.72
2019-01-22T13:10:50.046Z,99.49
2019-01-22T13:13:18.954Z,100.00
2019-01-22T13:15:47.933Z,100.00
2019-01-22T13:18:16.944Z,99.90
2019-01-22T13:20:45.877Z,99.74
2019-01-22T13:23:14.967Z,98.54
2019-01-22T13:25:43.822Z,98.26
2019-01-22T13:28:12.795Z,97.92
2019-01-22T13:30:42.721Z,97.84
2019-01-22T13:33:11.783Z,97.75
2019-01-22T13:35:40.792Z,98.03
2019-01-22T13:38:09.599Z,97.92
2019-01-22T13:40:38.476Z,97.37
2019-01-22T13:43:07.691Z,97.49
2019-01-22T13:45:36.987Z,97.20
2019-01-22T13:48:07.606Z,96.53
2019-01-22T13:50:36.653Z,96.12
2019-01-22T13:53:05.922Z,95.56
2019-01-22T13:55:36.572Z,95.23
2019-01-22T13:58:05.931Z,94.28
2019-01-22T14:00:34.955Z,94.70
2019-01-22T14:03:04.331Z,94.76
2019-01-22T14:05:33.300Z,94.59
2019-01-22T14:08:02.184Z,93.77
2019-01-22T14:10:30.981Z,93.72
2019-01-22T14:12:59.954Z,93.46
2019-01-22T14:15:31.295Z,93.09
2019-01-22T14:18:00.247Z,92.30
2019-01-22T14:20:29.169Z,91.76
2019-01-22T14:22:58.035Z,91.21
2019-01-22T14:25:26.926Z,91.22
2019-01-22T14:27:55.811Z,91.65
2019-01-22T14:30:31.030Z,92.15
2019-01-22T14:32:59.928Z,91.83
2019-01-22T14:35:28.938Z,90.27
2019-01-22T14:37:57.907Z,90.18
2019-01-22T14:40:26.888Z,89.71
2019-01-22T14:42:56.106Z,89.30
2019-01-22T14:45:25.059Z,89.04
2019-01-22T14:47:54.003Z,88.84
2019-01-22T14:50:24.840Z,89.27
2019-01-22T14:52:53.716Z,89.17
2019-01-22T14:55:22.637Z,89.33
2019-01-22T14:57:51.502Z,89.53
2019-01-22T15:00:22.470Z,89.49
2019-01-22T15:02:51.396Z,89.03
2019-01-22T15:05:20.336Z,88.97
2019-01-22T15:07:49.313Z,88.60
2019-01-22T15:10:18.493Z,87.79
2019-01-22T15:12:48.835Z,87.24
2019-01-22T15:15:18.329Z,87.40
2019-01-22T15:17:47.265Z,86.74
2019-01-22T15:20:18.710Z,86.67
2019-01-22T15:22:47.660Z,86.33
2019-01-22T15:25:16.691Z,86.50
2019-01-22T15:27:45.873Z,86.59
2019-01-22T15:30:16.997Z,85.96
2019-01-22T15:32:46.096Z,85.93
2019-01-22T15:35:16.054Z,86.26
2019-01-22T15:37:44.924Z,85.97
2019-01-22T15:40:17.194Z,86.54
2019-01-22T15:42:46.242Z,85.89
2019-01-22T15:45:15.188Z,88.25
2019-01-22T15:47:44.081Z,88.25
2019-01-22T15:50:13.938Z,88.60
2019-01-22T15:52:42.881Z,89.10
2019-01-22T15:55:16.297Z,89.20
2019-01-22T15:57:45.087Z,88.62
2019-01-22T16:00:16.621Z,87.74
2019-01-22T16:02:45.507Z,86.76
2019-01-22T16:05:14.543Z,86.62
2019-01-22T16:07:43.368Z,86.87
2019-01-22T16:10:12.715Z,86.55
2019-01-22T16:12:41.512Z,85.92
2019-01-22T16:15:13.007Z,85.75
2019-01-22T16:17:41.959Z,85.63
2019-01-22T16:20:16.539Z,87.03
2019-01-22T16:22:45.352Z,88.30
2019-01-22T16:25:14.832Z,89.79
2019-01-22T16:27:43.721Z,90.13
2019-01-22T16:30:15.237Z,90.57
2019-01-22T16:32:44.115Z,90.97
2019-01-22T16:35:14.860Z,91.20
2019-01-22T16:37:44.008Z,90.86
2019-01-22T16:40:13.603Z,91.69
2019-01-22T16:42:42.602Z,91.66
2019-01-22T16:45:18.295Z,92.02
2019-01-22T16:47:47.296Z,91.11
2019-01-22T16:50:16.551Z,90.66
2019-01-22T16:52:45.509Z,89.95
2019-01-22T16:55:17.667Z,89.40
2019-01-22T16:57:46.466Z,89.00
2019-01-22T17:00:22.086Z,88.83
2019-01-22T17:02:51.088Z,89.11
2019-01-22T17:05:20.351Z,89.40
2019-01-22T17:07:49.469Z,90.48
2019-01-22T17:10:19.347Z,90.46
2019-01-22T17:12:49.192Z,89.78
2019-01-22T17:15:19.297Z,89.84
2019-01-22T17:17:49.300Z,89.73
2019-01-22T17:20:27.759Z,90.37
2019-01-22T17:23:02.690Z,91.12
2019-01-22T17:25:31.703Z,90.36
2019-01-22T17:28:00.723Z,90.26
2019-01-22T17:30:31.029Z,89.92
2019-01-22T17:33:19.549Z,90.14
2019-01-22T17:35:49.975Z,90.14
2019-01-22T17:38:20.903Z,89.48
2019-01-22T17:40:50.104Z,88.98
2019-01-22T17:43:19.982Z,88.71
2019-01-22T17:45:48.769Z,89.20
2019-01-22T17:48:17.670Z,88.88
2019-01-22T17:50:46.757Z,88.38
2019-01-22T17:53:15.601Z,87.50
2019-01-22T17:55:44.465Z,86.77
2019-01-22T17:58:13.337Z,85.86
2019-01-22T18:00:42.629Z,85.37
2019-01-22T18:03:11.577Z,85.21
2019-01-22T18:05:40.445Z,85.16
2019-01-22T18:08:09.834Z,85.57
2019-01-22T18:10:38.919Z,85.80
2019-01-22T18:13:07.870Z,86.10
2019-01-22T18:15:36.789Z,86.51
2019-01-22T18:18:06.244Z,88.19
2019-01-22T18:20:35.098Z,90.12
2019-01-22T18:23:03.970Z,91.95
2019-01-22T18:25:32.925Z,92.84
2019-01-22T18:28:01.912Z,93.03
2019-01-22T18:30:30.795Z,92.04
2019-01-22T18:32:59.656Z,91.10
2019-01-22T18:35:42.675Z,89.61
2019-01-22T18:38:13.870Z,88.65
2019-01-22T18:40:42.698Z,88.39
2019-01-22T18:43:11.602Z,88.25
2019-01-22T18:45:40.539Z,88.08
2019-01-22T18:48:09.426Z,88.07
2019-01-22T18:50:38.305Z,87.68
2019-01-22T18:53:07.181Z,87.80
2019-01-22T18:55:36.090Z,88.00
2019-01-22T18:58:05.189Z,87.77
2019-01-22T19:00:34.076Z,88.12
2019-01-22T19:03:03.063Z,88.78
2019-01-22T19:05:32.051Z,88.93
2019-01-22T19:08:00.898Z,88.19
2019-01-22T19:10:29.830Z,87.99
2019-01-22T19:12:58.786Z,88.37
2019-01-22T19:15:27.757Z,88.79
2019-01-22T19:17:56.724Z,88.59
2019-01-22T19:20:25.560Z,88.34
2019-01-22T19:22:54.518Z,87.48
2019-01-22T19:25:25.507Z,86.66
2019-01-22T19:27:54.367Z,86.22
2019-01-22T19:30:25.809Z,86.42
2019-01-22T19:32:54.709Z,86.63
2019-01-22T19:35:24.013Z,86.92
2019-01-22T19:37:52.878Z,86.38
2019-01-22T19:40:21.879Z,86.39
2019-01-22T19:42:50.880Z,85.76
2019-01-22T19:45:23.109Z,85.76
2019-01-22T19:47:51.976Z,85.45
2019-01-22T19:50:20.961Z,86.15
2019-01-22T19:52:49.860Z,85.38
2019-01-22T19:55:18.856Z,86.08
2019-01-22T19:57:47.752Z,85.85
2019-01-22T20:00:22.370Z,84.21
2019-01-22T20:02:51.250Z,83.71
2019-01-22T20:05:20.711Z,84.16
2019-01-22T20:07:49.871Z,84.82
2019-01-22T20:10:18.861Z,84.53
2019-01-22T20:12:47.728Z,84.30
2019-01-22T20:15:16.785Z,84.91
2019-01-22T20:17:45.751Z,84.91
2019-01-22T20:20:16.799Z,84.45
2019-01-22T20:22:45.791Z,84.72
2019-01-22T20:25:15.471Z,85.07
2019-01-22T20:27:48.360Z,85.02
2019-01-22T20:30:32.545Z,85.40
2019-01-22T20:33:01.425Z,85.92
2019-01-22T20:35:30.333Z,86.02
2019-01-22T20:37:59.285Z,86.23
2019-01-22T20:40:28.245Z,86.41
2019-01-22T20:42:57.178Z,86.34
2019-01-22T20:45:27.846Z,86.24
2019-01-22T20:47:56.707Z,86.19
2019-01-22T20:50:25.793Z,86.21
2019-01-22T20:52:54.791Z,86.39
2019-01-22T20:55:23.805Z,86.21
2019-01-22T20:57:54.959Z,86.26
2019-01-22T21:00:24.074Z,86.18
2019-01-22T21:02:53.469Z,85.55
2019-01-22T21:05:24.263Z,85.50
2019-01-22T21:07:53.439Z,85.75
2019-01-22T21:10:30.570Z,85.36
2019-01-22T21:12:59.512Z,85.63
2019-01-22T21:15:28.565Z,85.69
2019-01-22T21:17:57.804Z,85.51
2019-01-22T21:20:26.751Z,85.23
2019-01-22T21:22:55.610Z,85.21
2019-01-22T21:25:24.737Z,84.90
2019-01-22T21:27:53.742Z,85.53
2019-01-22T21:30:33.863Z,85.82
2019-01-22T21:33:03.283Z,85.68
2019-01-22T21:35:32.305Z,85.00
2019-01-22T21:38:01.169Z,85.31
2019-01-22T21:40:30.040Z,85.27
2019-01-22T21:42:59.002Z,84.66
2019-01-22T21:45:27.913Z,85.00
2019-01-22T21:47:56.759Z,84.75
2019-01-22T21:50:25.814Z,83.97
2019-01-22T21:52:54.777Z,83.81
2019-01-22T21:55:23.741Z,83.24
2019-01-22T21:57:52.684Z,83.86
2019-01-22T22:02:40.234Z,83.77
2019-01-22T22:05:10.841Z,84.06
2019-01-22T22:07:39.787Z,84.61
2019-01-22T22:10:11.884Z,84.39
2019-01-22T22:12:40.932Z,84.40
2019-01-22T22:15:11.138Z,84.66
2019-01-22T22:17:39.942Z,83.48
2019-01-22T22:20:11.390Z,84.17
2019-01-22T22:22:40.347Z,83.28
2019-01-22T22:25:11.033Z,84.14
2019-01-22T22:27:39.909Z,83.26
2019-01-22T22:30:21.070Z,82.90
2019-01-22T22:32:49.989Z,82.90
2019-01-22T22:35:18.919Z,83.28
2019-01-22T22:37:47.815Z,83.04
2019-01-22T22:40:17.043Z,83.92
2019-01-22T22:42:45.922Z,84.58
2019-01-22T22:45:16.602Z,83.58
2019-01-22T22:47:45.536Z,84.20
2019-01-22T22:50:17.672Z,82.51
2019-01-22T22:52:46.499Z,83.22
2019-01-22T22:55:15.555Z,83.18
2019-01-22T22:57:44.366Z,82.89
2019-01-22T23:00:43.060Z,84.19
2019-01-22T23:03:12.663Z,84.34
2019-01-22T23:05:41.609Z,84.08
2019-01-22T23:08:10.575Z,84.44
2019-01-22T23:10:39.450Z,84.94
2019-01-22T23:13:08.328Z,85.09
2019-01-22T23:15:37.275Z,85.57
2019-01-22T23:18:06.424Z,85.58
2019-01-22T23:20:35.215Z,85.44
2019-01-22T23:23:04.383Z,85.53
2019-01-22T23:25:33.300Z,86.03
2019-01-22T23:28:02.339Z,85.73
2019-01-22T23:30:31.397Z,86.29
2019-01-22T23:33:00.272Z,85.63
2019-01-22T23:35:29.144Z,85.74
2019-01-22T23:37:57.948Z,86.16
2019-01-22T23:40:26.868Z,85.58
2019-01-22T23:42:55.667Z,85.48
2019-01-22T23:45:24.565Z,85.24
2019-01-22T23:47:53.470Z,85.02
2019-01-22T23:50:22.328Z,84.79
2019-01-22T23:52:51.128Z,85.07
2019-01-22T23:55:19.913Z,84.83
2019-01-22T23:57:49.195Z,85.12
